Aérodrome :
LOGIN :

S'inscrire | Disclaimer

   EN    FR    IT 

 










Légende :    VFR   VFR Marginal   IFR   IFR Intensif   IFR Très Intensif
Visi : 
Plafond : 
>= 8 km
>= 3000ft
5 à 8 km
1000 à 3000 ft
1500m à 5 km
500 à 1000 ft
800 à 1500m
200 à 500 ft
< 800m
< 200 ft
Symboles :   Orages  Brouillard  Fortes neiges  Fortes précipitations  Vent > 20 kt
SIGMETs :   Divers  Orages  Givrage  Turbulence  Onde Orograph.  Cendres Volcan.







- Altitude de l'aérodrome : 1247 ft
- Code IATA : PRG


LKPR - Praha Ruzyne

DERNIER METAR :
  • 161800Z 24009KT CAVOK 19/12 Q1012 NOSIG

METARs EXPIRÉS :
  • 161730Z 23010KT 190V260 CAVOK 19/13 Q1012 NOSIG
  • 161700Z 22012KT CAVOK 19/13 Q1012 NOSIG
  • 161630Z 23015KT 9999 FEW040TCU 19/12 Q1012 NOSIG
  • 161600Z 21016KT 170V230 9999 FEW040TCU 20/11 Q1012 NOSIG
  • 161554Z 22015G25KT 9999 VCSH FEW040CB 19/12 Q1013 RMK REG QNH 1008
  • 161551Z 22014KT 9999 VCSH FEW040CB 19/12 Q1012 RETS RMK REG QNH 1008
  • 161530Z 16014KT 9999 -SHRA VCTS FEW040CB 19/13 Q1012 TEMPO 21014KT 7000 TSRA SCT036CB
  • 161517Z 16014KT 9999 -SHRA VCTS FEW040CB 20/12 Q1013 RMK REG QNH 1008
  • 161511Z 17013KT 9999 VCTS FEW040CB 21/12 Q1013 RMK REG QNH 1008

TAF TAF LKPR
Valide du 16 à 18h jusqu'au 18 à 00h UTC


161700Z 1618/1800 29008KT CAVOK
TEMPO 1618/1621 24014KT 8000 SHRA SCT045TCU
PROB30
TEMPO 1618/1619 32018KT 5000 TSRA SCT040CB
TEMPO 1709/1717 8000 SHRA SCT045TCU
PROB30
TEMPO 1710/1716 34014G24KT 5000 TSRA SCT040CB
Pas de NOTAMs connus pour ce terrain.



MET'MAP, la Météo Aéronautique d'un coup d'oeil ! - Copyright ORBIFLY Décembre 2007 - Disclaimer

ORBIFLY MET'MAP TEAM :

Programmation & Développement : Alexandra Zaïnal
Conception & Développement : Baudouin d'Aumeries
Co-Programmation & Développement : Marc-Olivier Méhu
Soutien technique & logistique : Manuel Goepfert

Contact : metmap@orbifly.com




SOURCES & CREDITS :

   NOAA